Time;durP1;ratioP1;P1;durP2;ratioP2;P2;SDS_P1;SDS_P2;PMS_P1;PMS_P2;Temp;Humidity;BMP_temperature;BMP_pressure;BME280_temperature;BME280_humidity;BME280_pressure;Samples;Min_cycle;Max_cycle;Signal;HPM_P1;HPM_P2
2023/06/27 00:02:14;;;;;;;8.27;3.33;;;;;;;;;;5064436;28;20271;-34
2023/06/27 00:04:39;;;;;;;4.40;2.28;;;;;;;;;;5059371;28;20055;-34
2023/06/27 00:07:05;;;;;;;7.07;2.67;;;;;;;;;;5063614;28;20487;-35
2023/06/27 00:09:30;;;;;;;4.73;2.30;;;;;;;;;;5065945;28;20331;-34
2023/06/27 00:11:55;;;;;;;6.95;2.83;;;;;;;;;;5048195;28;20346;-34
2023/06/27 00:14:21;;;;;;;9.80;2.93;;;;;;;;;;5045497;28;20040;-36
2023/06/27 00:16:46;;;;;;;6.07;2.53;;;;;;;;;;5061346;28;20295;-34
2023/06/27 00:19:11;;;;;;;6.40;2.42;;;;;;;;;;5061659;28;20483;-34
2023/06/27 00:21:37;;;;;;;7.37;2.80;;;;;;;;;;5063347;28;20043;-36
2023/06/27 00:24:06;;;;;;;6.07;2.45;;;;;;;;;;5061235;28;20361;-35
2023/06/27 00:26:31;;;;;;;8.60;2.78;;;;;;;;;;5062348;28;20020;-35
2023/06/27 00:28:57;;;;;;;8.13;2.80;;;;;;;;;;5061030;28;20100;-34
2023/06/27 00:31:22;;;;;;;14.57;3.75;;;;;;;;;;5070249;28;20313;-35
2023/06/27 00:33:48;;;;;;;6.55;2.55;;;;;;;;;;5067121;28;20055;-34
2023/06/27 00:36:14;;;;;;;9.88;2.67;;;;;;;;;;5066581;28;20404;-34
2023/06/27 00:38:39;;;;;;;10.30;2.40;;;;;;;;;;5064292;28;20029;-34
2023/06/27 00:41:04;;;;;;;5.30;2.22;;;;;;;;;;5065003;28;20036;-35
2023/06/27 00:43:30;;;;;;;7.03;2.60;;;;;;;;;;5070005;28;20021;-35
2023/06/27 00:45:55;;;;;;;4.65;2.30;;;;;;;;;;5073360;28;20282;-34
2023/06/27 00:48:21;;;;;;;9.90;2.75;;;;;;;;;;5064824;28;20056;-35
2023/06/27 00:50:48;;;;;;;7.75;2.80;;;;;;;;;;5070901;28;20116;-35
2023/06/27 00:53:14;;;;;;;5.93;2.25;;;;;;;;;;5053228;28;20049;-34
2023/06/27 00:55:40;;;;;;;5.07;2.25;;;;;;;;;;5053442;28;20492;-34
2023/06/27 00:58:06;;;;;;;6.30;2.78;;;;;;;;;;5070251;28;20020;-34
2023/06/27 01:00:32;;;;;;;14.52;4.80;;;;;;;;;;5071245;28;20017;-36
2023/06/27 01:02:57;;;;;;;8.35;2.90;;;;;;;;;;5067342;28;20017;-34
2023/06/27 01:05:23;;;;;;;7.17;2.33;;;;;;;;;;5066697;28;20391;-35
2023/06/27 01:08:03;;;;;;;8.27;3.08;;;;;;;;;;5066870;28;20370;-35
2023/06/27 01:10:32;;;;;;;8.82;2.80;;;;;;;;;;5052609;28;20054;-34
2023/06/27 01:13:00;;;;;;;5.60;2.40;;;;;;;;;;5070818;28;20424;-34
2023/06/27 01:15:26;;;;;;;7.70;2.75;;;;;;;;;;5068864;28;20024;-35
2023/06/27 01:17:51;;;;;;;9.30;3.08;;;;;;;;;;5064934;28;20101;-35
2023/06/27 01:20:17;;;;;;;7.15;2.60;;;;;;;;;;5068352;28;20478;-34
2023/06/27 01:22:44;;;;;;;10.27;3.33;;;;;;;;;;5069412;28;20017;-34
2023/06/27 01:25:11;;;;;;;11.52;2.13;;;;;;;;;;5070182;28;20027;-34
2023/06/27 01:27:36;;;;;;;11.65;2.88;;;;;;;;;;5067740;28;20394;-35
2023/06/27 01:30:02;;;;;;;5.68;2.45;;;;;;;;;;5059851;28;20491;-37
2023/06/27 01:32:32;;;;;;;5.38;2.42;;;;;;;;;;5054382;28;20043;-35
2023/06/27 01:35:00;;;;;;;13.75;3.47;;;;;;;;;;5063245;28;20880;-34
2023/06/27 01:37:29;;;;;;;10.55;2.47;;;;;;;;;;5060993;28;20395;-36
2023/06/27 01:40:07;;;;;;;5.43;2.22;;;;;;;;;;5065748;28;20540;-35
2023/06/27 01:42:43;;;;;;;10.13;2.90;;;;;;;;;;5063003;28;20025;-34
2023/06/27 01:45:10;;;;;;;11.23;2.42;;;;;;;;;;5063559;28;20033;-36
2023/06/27 01:47:36;;;;;;;5.50;2.05;;;;;;;;;;5065473;28;20085;-35
2023/06/27 01:50:02;;;;;;;11.00;2.38;;;;;;;;;;5069217;28;20029;-34
2023/06/27 01:52:28;;;;;;;8.82;2.90;;;;;;;;;;5050869;28;20119;-34
2023/06/27 01:54:53;;;;;;;4.53;1.93;;;;;;;;;;5063393;28;20029;-35
2023/06/27 01:57:18;;;;;;;3.33;2.27;;;;;;;;;;5067313;28;20287;-34
2023/06/27 01:59:43;;;;;;;9.30;2.10;;;;;;;;;;5062730;28;20352;-34
2023/06/27 02:02:09;;;;;;;12.38;2.10;;;;;;;;;;5052338;28;20077;-34
2023/06/27 02:04:34;;;;;;;8.53;3.20;;;;;;;;;;5064342;28;20029;-34
2023/06/27 02:06:59;;;;;;;11.55;2.72;;;;;;;;;;5067712;28;20316;-34
2023/06/27 02:09:25;;;;;;;8.60;2.70;;;;;;;;;;5069770;28;20040;-35
2023/06/27 02:11:50;;;;;;;5.65;2.20;;;;;;;;;;5061885;28;20278;-34
2023/06/27 02:14:15;;;;;;;5.43;2.70;;;;;;;;;;5068999;28;20032;-37
2023/06/27 02:16:40;;;;;;;7.90;2.20;;;;;;;;;;5053529;28;20275;-34
2023/06/27 02:19:06;;;;;;;5.97;2.10;;;;;;;;;;5054638;28;20369;-35
2023/06/27 02:21:31;;;;;;;6.73;2.63;;;;;;;;;;5067993;28;20286;-34
2023/06/27 02:23:59;;;;;;;7.77;1.90;;;;;;;;;;5070919;28;20263;-34
2023/06/27 02:26:24;;;;;;;8.32;2.80;;;;;;;;;;5070465;28;20342;-34
2023/06/27 02:28:50;;;;;;;7.17;2.27;;;;;;;;;;5069539;28;20099;-35
2023/06/27 02:31:15;;;;;;;6.97;2.17;;;;;;;;;;5072772;28;20271;-34
2023/06/27 02:33:40;;;;;;;6.22;1.90;;;;;;;;;;5068622;28;20029;-34
2023/06/27 02:36:06;;;;;;;9.23;2.27;;;;;;;;;;5052138;28;20032;-34
2023/06/27 02:38:31;;;;;;;6.32;2.30;;;;;;;;;;5070688;28;20283;-34
2023/06/27 02:40:59;;;;;;;6.65;2.28;;;;;;;;;;5061352;28;20032;-34
2023/06/27 02:43:24;;;;;;;8.38;2.10;;;;;;;;;;5066475;28;20044;-34
2023/06/27 02:45:49;;;;;;;8.90;2.53;;;;;;;;;;5066864;28;20021;-35
2023/06/27 02:48:14;;;;;;;12.60;2.23;;;;;;;;;;5046533;28;20279;-36
2023/06/27 02:50:46;;;;;;;7.88;2.10;;;;;;;;;;5065672;28;20275;-34
2023/06/27 02:53:11;;;;;;;14.87;3.27;;;;;;;;;;5067534;28;20572;-35
2023/06/27 02:55:36;;;;;;;5.65;1.98;;;;;;;;;;5067662;28;20016;-34
2023/06/27 02:58:02;;;;;;;16.70;3.10;;;;;;;;;;5060119;28;20078;-37
2023/06/27 03:00:27;;;;;;;10.85;2.20;;;;;;;;;;5063963;28;20279;-34
2023/06/27 03:02:52;;;;;;;8.53;2.43;;;;;;;;;;5062538;28;20047;-36
2023/06/27 03:05:17;;;;;;;3.30;1.03;;;;;;;;;;5046585;28;20361;-34
2023/06/27 03:07:43;;;;;;;8.67;2.93;;;;;;;;;;5066608;28;20275;-35
2023/06/27 03:10:08;;;;;;;16.40;4.77;;;;;;;;;;5057761;28;20275;-34
2023/06/27 03:12:33;;;;;;;5.68;2.40;;;;;;;;;;5044424;28;20271;-35
2023/06/27 03:14:59;;;;;;;7.73;2.30;;;;;;;;;;5066148;28;20032;-34
2023/06/27 03:17:24;;;;;;;8.50;2.73;;;;;;;;;;5064959;28;20374;-34
2023/06/27 03:19:50;;;;;;;12.70;3.47;;;;;;;;;;5065479;28;20660;-34
2023/06/27 03:22:15;;;;;;;13.13;4.47;;;;;;;;;;5050737;28;20048;-34
2023/06/27 03:24:40;;;;;;;4.93;2.38;;;;;;;;;;5060822;28;20024;-36
2023/06/27 03:27:05;;;;;;;6.40;2.38;;;;;;;;;;5065648;28;20035;-34
2023/06/27 03:29:31;;;;;;;9.97;2.67;;;;;;;;;;5064980;28;20074;-34
2023/06/27 03:31:57;;;;;;;8.77;2.50;;;;;;;;;;5062868;28;20379;-34
2023/06/27 03:34:22;;;;;;;13.90;2.45;;;;;;;;;;5064282;28;20281;-34
2023/06/27 03:36:48;;;;;;;12.73;3.33;;;;;;;;;;5064847;28;20024;-35
2023/06/27 03:39:13;;;;;;;7.73;2.87;;;;;;;;;;5064988;28;20039;-34
2023/06/27 03:41:38;;;;;;;7.85;2.65;;;;;;;;;;5043544;28;20310;-37
2023/06/27 03:44:05;;;;;;;7.73;2.90;;;;;;;;;;5044636;28;20033;-34
2023/06/27 03:46:30;;;;;;;9.30;2.42;;;;;;;;;;5065839;28;20259;-33
2023/06/27 03:48:58;;;;;;;9.43;3.78;;;;;;;;;;5058676;28;20039;-35
2023/06/27 03:51:23;;;;;;;7.03;2.30;;;;;;;;;;5056961;28;20127;-35
2023/06/27 03:53:48;;;;;;;13.98;2.75;;;;;;;;;;5067378;28;20020;-34
2023/06/27 03:56:14;;;;;;;13.40;3.80;;;;;;;;;;5063466;28;20082;-34
2023/06/27 03:58:39;;;;;;;6.43;2.50;;;;;;;;;;5062373;28;20614;-35
2023/06/27 04:01:04;;;;;;;11.37;2.73;;;;;;;;;;5065625;28;20488;-34
2023/06/27 04:03:29;;;;;;;7.47;3.00;;;;;;;;;;5063082;28;20271;-34
2023/06/27 04:05:55;;;;;;;10.47;3.00;;;;;;;;;;5066697;28;20351;-34
2023/06/27 04:08:20;;;;;;;10.23;2.55;;;;;;;;;;5063646;28;20282;-34
2023/06/27 04:10:45;;;;;;;6.03;2.50;;;;;;;;;;5065571;28;20024;-36
2023/06/27 04:13:11;;;;;;;8.07;2.55;;;;;;;;;;5062743;28;20020;-34
2023/06/27 04:15:42;;;;;;;6.28;2.63;;;;;;;;;;5061891;28;20028;-34
2023/06/27 04:18:07;;;;;;;10.52;2.72;;;;;;;;;;5070837;28;20616;-34
2023/06/27 04:20:33;;;;;;;12.15;2.97;;;;;;;;;;5069505;28;20046;-34
2023/06/27 04:22:58;;;;;;;21.25;9.48;;;;;;;;;;5066499;28;20582;-35
2023/06/27 04:25:25;;;;;;;8.77;3.20;;;;;;;;;;5067077;28;20036;-35
2023/06/27 04:27:50;;;;;;;4.00;1.83;;;;;;;;;;5067088;28;20282;-35
2023/06/27 04:30:16;;;;;;;10.75;3.30;;;;;;;;;;5063908;28;20021;-34
2023/06/27 04:32:41;;;;;;;8.80;2.67;;;;;;;;;;5057350;28;20028;-34
2023/06/27 04:35:06;;;;;;;10.73;2.97;;;;;;;;;;5064894;28;20033;-34
2023/06/27 04:37:32;;;;;;;7.65;2.60;;;;;;;;;;5052906;28;20295;-34
2023/06/27 04:39:57;;;;;;;9.55;3.45;;;;;;;;;;5053924;28;20033;-34
2023/06/27 04:42:22;;;;;;;14.53;3.80;;;;;;;;;;5065566;28;20013;-34
2023/06/27 04:44:48;;;;;;;11.57;2.75;;;;;;;;;;5064272;28;20328;-34
2023/06/27 04:47:13;;;;;;;11.17;3.23;;;;;;;;;;5061587;28;20036;-35
2023/06/27 04:49:38;;;;;;;13.80;3.83;;;;;;;;;;5047361;28;20294;-34
2023/06/27 04:52:03;;;;;;;6.97;2.92;;;;;;;;;;5060959;28;20278;-35
2023/06/27 04:54:29;;;;;;;11.25;3.78;;;;;;;;;;5067138;28;20037;-35
2023/06/27 04:56:54;;;;;;;10.40;3.10;;;;;;;;;;5065514;28;20653;-35
2023/06/27 04:59:19;;;;;;;11.70;3.03;;;;;;;;;;5070638;28;20024;-34
2023/06/27 05:01:45;;;;;;;12.40;3.83;;;;;;;;;;5071468;28;20337;-35
2023/06/27 05:04:10;;;;;;;13.43;3.08;;;;;;;;;;5067580;28;20032;-34
2023/06/27 05:06:35;;;;;;;8.13;3.30;;;;;;;;;;5069864;28;20024;-35
2023/06/27 05:09:01;;;;;;;8.68;3.00;;;;;;;;;;5070160;28;20279;-34
2023/06/27 05:11:27;;;;;;;12.93;3.08;;;;;;;;;;5068744;28;20028;-34
2023/06/27 05:13:53;;;;;;;10.73;3.55;;;;;;;;;;5069280;28;20059;-34
2023/06/27 05:16:19;;;;;;;14.25;3.80;;;;;;;;;;5065157;28;20116;-35
2023/06/27 05:18:44;;;;;;;10.25;3.10;;;;;;;;;;5068668;28;20111;-35
2023/06/27 05:21:11;;;;;;;10.23;2.60;;;;;;;;;;5071783;28;20013;-35
2023/06/27 05:23:36;;;;;;;9.45;2.70;;;;;;;;;;5073592;28;20259;-34
2023/06/27 05:26:01;;;;;;;7.22;2.78;;;;;;;;;;5071489;28;20032;-34
2023/06/27 05:28:26;;;;;;;10.80;3.33;;;;;;;;;;5069004;28;20095;-35
2023/06/27 05:30:52;;;;;;;9.23;2.87;;;;;;;;;;5071271;28;20818;-34
2023/06/27 05:33:17;;;;;;;14.70;3.43;;;;;;;;;;5072977;28;20253;-34
2023/06/27 05:35:42;;;;;;;14.07;3.13;;;;;;;;;;5070761;28;20325;-34
2023/06/27 05:38:07;;;;;;;8.98;3.38;;;;;;;;;;5071317;28;20301;-34
2023/06/27 05:40:33;;;;;;;10.37;3.10;;;;;;;;;;5065645;28;20020;-35
2023/06/27 05:42:58;;;;;;;7.32;2.65;;;;;;;;;;5069645;28;20802;-34
2023/06/27 05:45:23;;;;;;;12.03;3.13;;;;;;;;;;5070169;28;20028;-34
2023/06/27 05:47:48;;;;;;;15.98;3.17;;;;;;;;;;5066712;28;20044;-36
2023/06/27 05:50:14;;;;;;;11.97;2.93;;;;;;;;;;5070304;28;20055;-34
2023/06/27 05:52:39;;;;;;;9.97;4.03;;;;;;;;;;5068839;28;20692;-35
2023/06/27 05:55:05;;;;;;;11.13;3.43;;;;;;;;;;5066510;28;20362;-34
2023/06/27 05:57:30;;;;;;;10.30;3.72;;;;;;;;;;5067619;28;20780;-34
2023/06/27 05:59:55;;;;;;;11.33;3.10;;;;;;;;;;5066770;28;20017;-34
2023/06/27 06:02:20;;;;;;;8.43;3.33;;;;;;;;;;5069770;28;20251;-34
2023/06/27 06:04:46;;;;;;;7.67;3.10;;;;;;;;;;5064467;28;20010;-36
2023/06/27 06:07:11;;;;;;;10.98;3.10;;;;;;;;;;5065076;28;20762;-34
2023/06/27 06:09:36;;;;;;;9.07;2.83;;;;;;;;;;5063428;28;20051;-34
2023/06/27 06:12:02;;;;;;;9.23;2.53;;;;;;;;;;5063852;28;20818;-35
2023/06/27 06:14:27;;;;;;;23.65;6.40;;;;;;;;;;5069540;28;20037;-34
2023/06/27 06:16:53;;;;;;;14.90;3.08;;;;;;;;;;5068476;28;20020;-34
2023/06/27 06:19:18;;;;;;;9.07;2.60;;;;;;;;;;5069788;28;20029;-36
2023/06/27 06:21:44;;;;;;;11.05;2.83;;;;;;;;;;5065423;28;20028;-34
2023/06/27 06:24:09;;;;;;;8.13;2.30;;;;;;;;;;5071605;28;20383;-34
2023/06/27 06:26:35;;;;;;;7.90;2.83;;;;;;;;;;5067369;28;20270;-34
2023/06/27 06:29:00;;;;;;;7.03;2.35;;;;;;;;;;5069091;28;20271;-34
2023/06/27 06:31:26;;;;;;;11.65;2.40;;;;;;;;;;5063566;28;20073;-37
2023/06/27 06:33:51;;;;;;;15.57;2.90;;;;;;;;;;5064528;28;20105;-35
2023/06/27 06:36:18;;;;;;;10.20;3.20;;;;;;;;;;5064028;28;20033;-34
2023/06/27 06:38:44;;;;;;;9.27;2.40;;;;;;;;;;5068828;28;20073;-34
2023/06/27 06:41:09;;;;;;;10.87;2.80;;;;;;;;;;5060124;28;20461;-34
2023/06/27 06:43:34;;;;;;;9.67;2.33;;;;;;;;;;5067804;28;20255;-35
2023/06/27 06:45:59;;;;;;;12.40;3.20;;;;;;;;;;5068361;28;20044;-35
2023/06/27 06:48:25;;;;;;;7.82;3.10;;;;;;;;;;5070078;28;20028;-35
2023/06/27 06:50:51;;;;;;;6.10;2.20;;;;;;;;;;5068168;28;20024;-34
2023/06/27 06:53:16;;;;;;;6.38;2.33;;;;;;;;;;5066109;28;20271;-34
2023/06/27 06:55:42;;;;;;;11.95;3.20;;;;;;;;;;5068528;28;20433;-35
2023/06/27 06:58:07;;;;;;;6.13;2.42;;;;;;;;;;5071812;28;20438;-34
2023/06/27 07:00:32;;;;;;;9.33;2.60;;;;;;;;;;5067782;28;20474;-34
2023/06/27 07:02:57;;;;;;;12.77;2.60;;;;;;;;;;5070882;28;20265;-34
2023/06/27 07:05:23;;;;;;;11.90;3.40;;;;;;;;;;5072064;28;20020;-34
2023/06/27 07:07:48;;;;;;;10.98;2.25;;;;;;;;;;5063644;28;20099;-35
2023/06/27 07:10:14;;;;;;;10.40;2.50;;;;;;;;;;5055821;28;20055;-34
2023/06/27 07:12:40;;;;;;;7.20;1.50;;;;;;;;;;5067493;28;20054;-35
2023/06/27 07:15:05;;;;;;;12.80;2.38;;;;;;;;;;5063946;28;20119;-34
2023/06/27 07:17:31;;;;;;;7.22;1.90;;;;;;;;;;5065597;28;20115;-35
2023/06/27 07:19:57;;;;;;;7.53;1.83;;;;;;;;;;5066608;28;20049;-34
2023/06/27 07:22:22;;;;;;;11.53;2.23;;;;;;;;;;5060440;28;20021;-34
2023/06/27 07:24:48;;;;;;;9.10;2.03;;;;;;;;;;5064894;28;20012;-34
2023/06/27 07:27:13;;;;;;;5.83;2.50;;;;;;;;;;5061446;28;20548;-35
2023/06/27 07:29:39;;;;;;;4.55;1.08;;;;;;;;;;5057015;28;20029;-34
2023/06/27 07:32:04;;;;;;;5.90;1.47;;;;;;;;;;5058180;28;20123;-35
2023/06/27 07:34:30;;;;;;;6.35;1.98;;;;;;;;;;5067702;28;20106;-36
2023/06/27 07:36:55;;;;;;;8.95;1.95;;;;;;;;;;5060667;28;20395;-34
2023/06/27 07:39:21;;;;;;;5.97;2.10;;;;;;;;;;5063211;28;20185;-34
2023/06/27 07:41:46;;;;;;;12.83;2.07;;;;;;;;;;5064719;28;20567;-35
2023/06/27 07:44:11;;;;;;;6.45;1.85;;;;;;;;;;5058635;28;20291;-35
2023/06/27 07:46:36;;;;;;;4.33;1.47;;;;;;;;;;5064554;28;20049;-34
2023/06/27 07:49:02;;;;;;;10.60;2.03;;;;;;;;;;5062370;28;20289;-35
2023/06/27 07:51:27;;;;;;;9.02;2.05;;;;;;;;;;5068308;28;20308;-34
2023/06/27 07:53:54;;;;;;;5.90;1.40;;;;;;;;;;5063836;28;20058;-34
2023/06/27 07:56:20;;;;;;;5.63;1.77;;;;;;;;;;5066111;28;20028;-34
2023/06/27 07:58:45;;;;;;;4.78;1.67;;;;;;;;;;5069850;28;20005;-34
2023/06/27 08:01:10;;;;;;;9.77;2.13;;;;;;;;;;5066545;28;20020;-35
2023/06/27 08:03:36;;;;;;;7.00;1.88;;;;;;;;;;5061535;28;20683;-34
2023/06/27 08:06:03;;;;;;;9.95;1.80;;;;;;;;;;5060152;28;20383;-33
2023/06/27 08:08:28;;;;;;;5.88;1.50;;;;;;;;;;5062462;28;20028;-35
2023/06/27 08:10:56;;;;;;;6.10;1.63;;;;;;;;;;5065317;28;20492;-33
2023/06/27 08:13:21;;;;;;;9.75;1.95;;;;;;;;;;5065408;28;20033;-34
2023/06/27 08:15:46;;;;;;;7.88;1.80;;;;;;;;;;5060502;28;20037;-33
2023/06/27 08:18:11;;;;;;;8.30;1.63;;;;;;;;;;5062037;28;20025;-34
2023/06/27 08:20:37;;;;;;;8.57;1.50;;;;;;;;;;5062098;28;20399;-33
2023/06/27 08:23:02;;;;;;;2.80;1.08;;;;;;;;;;5066904;28;20280;-34
2023/06/27 08:25:27;;;;;;;5.70;1.30;;;;;;;;;;5052860;28;20077;-34
2023/06/27 08:27:52;;;;;;;4.50;2.07;;;;;;;;;;5066082;28;20265;-37
2023/06/27 08:30:18;;;;;;;7.20;1.40;;;;;;;;;;5067854;28;20277;-36
2023/06/27 08:32:44;;;;;;;6.78;1.30;;;;;;;;;;5063079;28;20073;-34
2023/06/27 08:35:11;;;;;;;8.17;1.67;;;;;;;;;;5063896;28;20471;-35
2023/06/27 08:37:36;;;;;;;5.63;1.55;;;;;;;;;;5055416;28;20115;-34
2023/06/27 08:40:01;;;;;;;8.02;1.55;;;;;;;;;;5057517;28;20112;-34
2023/06/27 08:42:28;;;;;;;5.60;1.00;;;;;;;;;;5061357;28;20028;-34
2023/06/27 08:44:54;;;;;;;11.68;2.72;;;;;;;;;;5063839;28;20266;-34
2023/06/27 08:47:21;;;;;;;4.63;0.95;;;;;;;;;;5062524;28;20085;-34
2023/06/27 08:49:49;;;;;;;4.43;1.90;;;;;;;;;;5063684;28;20020;-35
2023/06/27 08:52:18;;;;;;;4.57;0.77;;;;;;;;;;5064868;28;20060;-36
2023/06/27 08:54:45;;;;;;;7.00;1.13;;;;;;;;;;5062415;28;20066;-33
2023/06/27 08:57:11;;;;;;;5.22;1.15;;;;;;;;;;5066681;28;20086;-34
2023/06/27 08:59:36;;;;;;;2.90;0.98;;;;;;;;;;5062446;28;20032;-34
2023/06/27 09:02:03;;;;;;;4.68;1.02;;;;;;;;;;5063933;28;20052;-36
2023/06/27 09:04:31;;;;;;;7.25;1.50;;;;;;;;;;5064106;28;20062;-35
2023/06/27 09:06:57;;;;;;;8.05;1.00;;;;;;;;;;5066746;28;20063;-35
2023/06/27 09:09:24;;;;;;;4.20;1.00;;;;;;;;;;5063523;28;20052;-34
2023/06/27 09:11:50;;;;;;;6.45;1.00;;;;;;;;;;5057161;28;20025;-35
2023/06/27 09:14:16;;;;;;;10.15;1.20;;;;;;;;;;5066057;28;20059;-34
2023/06/27 09:16:41;;;;;;;6.97;1.15;;;;;;;;;;5061293;28;20522;-35
2023/06/27 09:19:07;;;;;;;4.85;1.05;;;;;;;;;;5062333;28;20099;-34
2023/06/27 09:21:34;;;;;;;7.53;1.77;;;;;;;;;;5063728;28;20048;-34
2023/06/27 09:24:04;;;;;;;5.63;1.00;;;;;;;;;;5059477;28;20051;-35
2023/06/27 09:26:29;;;;;;;3.53;1.77;;;;;;;;;;5066116;28;20456;-35
2023/06/27 09:28:54;;;;;;;2.73;1.30;;;;;;;;;;5060262;28;20515;-35
2023/06/27 09:31:20;;;;;;;3.33;1.13;;;;;;;;;;5067928;28;20279;-36
2023/06/27 09:33:47;;;;;;;3.80;1.58;;;;;;;;;;5063152;28;20757;-37
2023/06/27 09:36:28;;;;;;;3.00;0.90;;;;;;;;;;5068111;28;20024;-35
2023/06/27 09:38:55;;;;;;;2.97;1.40;;;;;;;;;;5066679;28;20024;-35
2023/06/27 09:41:21;;;;;;;6.35;0.90;;;;;;;;;;5064591;28;20060;-35
2023/06/27 09:43:50;;;;;;;3.10;0.90;;;;;;;;;;5064505;28;20055;-35
2023/06/27 09:46:15;;;;;;;7.55;0.90;;;;;;;;;;5071131;28;20350;-35
2023/06/27 09:48:42;;;;;;;3.87;0.53;;;;;;;;;;5065235;28;20096;-35
2023/06/27 09:51:08;;;;;;;6.40;0.82;;;;;;;;;;5066120;28;22698;-36
2023/06/27 09:53:34;;;;;;;6.47;1.17;;;;;;;;;;5068451;28;20108;-36
2023/06/27 09:55:59;;;;;;;8.15;1.30;;;;;;;;;;5065988;28;20029;-34
2023/06/27 09:58:25;;;;;;;5.35;1.08;;;;;;;;;;5054132;28;20356;-36
2023/06/27 10:00:50;;;;;;;4.22;0.80;;;;;;;;;;5066284;28;20028;-35
2023/06/27 10:03:19;;;;;;;5.43;1.10;;;;;;;;;;5057546;28;20041;-34
2023/06/27 10:05:45;;;;;;;3.53;0.80;;;;;;;;;;5063770;28;20536;-34
2023/06/27 10:08:11;;;;;;;4.18;0.80;;;;;;;;;;5057912;28;20135;-35
2023/06/27 10:10:36;;;;;;;3.88;0.65;;;;;;;;;;5068081;28;20510;-34
2023/06/27 10:13:02;;;;;;;4.70;0.98;;;;;;;;;;5064971;28;20033;-37
2023/06/27 10:15:27;;;;;;;4.03;1.00;;;;;;;;;;5062721;28;20506;-36
2023/06/27 10:17:52;;;;;;;6.30;0.97;;;;;;;;;;5067304;28;20029;-35
2023/06/27 10:20:18;;;;;;;3.83;1.30;;;;;;;;;;5067022;28;20285;-34
2023/06/27 10:22:45;;;;;;;3.10;1.65;;;;;;;;;;5071873;28;20028;-34
2023/06/27 10:25:10;;;;;;;5.78;1.20;;;;;;;;;;5057799;28;21442;-35
2023/06/27 10:27:42;;;;;;;5.07;1.23;;;;;;;;;;5063051;28;20104;-35
2023/06/27 10:30:13;;;;;;;5.05;0.85;;;;;;;;;;5058702;28;20098;-34
2023/06/27 10:32:44;;;;;;;6.55;0.60;;;;;;;;;;5063174;28;20028;-35
2023/06/27 10:35:11;;;;;;;3.33;1.23;;;;;;;;;;5062361;28;20112;-35
2023/06/27 10:37:38;;;;;;;5.10;0.98;;;;;;;;;;5059393;28;20044;-34
2023/06/27 10:40:04;;;;;;;4.20;0.90;;;;;;;;;;5059854;28;20029;-34
2023/06/27 10:42:31;;;;;;;7.03;1.30;;;;;;;;;;5059103;28;20024;-34
2023/06/27 10:44:56;;;;;;;3.53;0.65;;;;;;;;;;5058057;28;20552;-34
2023/06/27 10:47:22;;;;;;;2.20;0.80;;;;;;;;;;5064085;28;20490;-34
2023/06/27 10:49:48;;;;;;;3.03;0.70;;;;;;;;;;5062335;28;20044;-35
2023/06/27 10:52:20;;;;;;;2.95;0.90;;;;;;;;;;5059617;28;20103;-34
2023/06/27 10:54:45;;;;;;;4.90;1.10;;;;;;;;;;5062308;28;20013;-34
2023/06/27 10:57:15;;;;;;;6.32;1.00;;;;;;;;;;5061192;28;20031;-35
2023/06/27 10:59:45;;;;;;;2.90;0.88;;;;;;;;;;5060813;28;20020;-35
2023/06/27 11:02:10;;;;;;;6.03;0.85;;;;;;;;;;5061546;28;20066;-34
2023/06/27 11:04:41;;;;;;;2.25;0.80;;;;;;;;;;5058326;28;20379;-35
2023/06/27 11:07:14;;;;;;;8.27;1.85;;;;;;;;;;5063351;28;20540;-35
2023/06/27 11:09:48;;;;;;;1.95;0.52;;;;;;;;;;5058196;28;20109;-36
2023/06/27 11:12:16;;;;;;;1.42;0.65;;;;;;;;;;5055485;28;20029;-34
2023/06/27 11:14:43;;;;;;;2.70;0.60;;;;;;;;;;5065091;28;20070;-37
2023/06/27 11:17:08;;;;;;;4.45;0.68;;;;;;;;;;5064891;28;20021;-35
2023/06/27 11:19:35;;;;;;;1.20;0.40;;;;;;;;;;5069118;28;20035;-35
2023/06/27 11:22:00;;;;;;;1.65;0.60;;;;;;;;;;5062943;28;20932;-35
2023/06/27 11:24:26;;;;;;;2.28;0.75;;;;;;;;;;5062547;28;20052;-36
2023/06/27 11:26:52;;;;;;;4.82;0.63;;;;;;;;;;5064541;28;20024;-36
2023/06/27 11:29:17;;;;;;;1.73;0.47;;;;;;;;;;5066449;28;20041;-34
2023/06/27 11:31:43;;;;;;;2.37;0.70;;;;;;;;;;5064273;28;20020;-34
2023/06/27 11:34:08;;;;;;;3.38;1.08;;;;;;;;;;5068683;28;20266;-35
2023/06/27 11:36:36;;;;;;;3.20;0.68;;;;;;;;;;5064746;28;20025;-37
2023/06/27 11:39:03;;;;;;;6.07;0.90;;;;;;;;;;5065641;28;20049;-34
2023/06/27 11:41:28;;;;;;;2.75;0.80;;;;;;;;;;5063523;28;20099;-34
2023/06/27 11:43:53;;;;;;;2.97;0.70;;;;;;;;;;5065346;28;20144;-34
2023/06/27 11:46:22;;;;;;;2.20;0.80;;;;;;;;;;5065023;28;20020;-36
2023/06/27 11:48:47;;;;;;;6.68;0.73;;;;;;;;;;5065148;28;20511;-36
2023/06/27 11:51:13;;;;;;;1.75;0.95;;;;;;;;;;5063286;28;20028;-35
2023/06/27 11:53:38;;;;;;;3.53;1.00;;;;;;;;;;5068617;28;20525;-35
2023/06/27 11:56:04;;;;;;;4.00;0.85;;;;;;;;;;5067821;28;20021;-35
2023/06/27 11:58:31;;;;;;;5.78;1.00;;;;;;;;;;5070043;28;20059;-35
2023/06/27 12:01:02;;;;;;;3.92;1.17;;;;;;;;;;5063276;28;20080;-35
2023/06/27 12:03:33;;;;;;;2.60;1.00;;;;;;;;;;5061459;28;20024;-35
2023/06/27 12:05:58;;;;;;;4.05;0.90;;;;;;;;;;5064544;28;20024;-34
2023/06/27 12:08:33;;;;;;;2.60;1.23;;;;;;;;;;5066596;28;20036;-35
2023/06/27 12:11:03;;;;;;;3.83;1.00;;;;;;;;;;5058780;28;20029;-36
2023/06/27 12:13:33;;;;;;;2.20;0.77;;;;;;;;;;5064004;28;20379;-35
2023/06/27 12:15:58;;;;;;;5.40;1.25;;;;;;;;;;5061683;28;20048;-34
2023/06/27 12:18:24;;;;;;;4.70;0.98;;;;;;;;;;5059813;28;20491;-34
2023/06/27 12:20:55;;;;;;;5.13;1.13;;;;;;;;;;5059585;28;20071;-34
2023/06/27 12:23:20;;;;;;;4.15;1.25;;;;;;;;;;5056379;28;20017;-36
2023/06/27 12:25:46;;;;;;;4.03;1.10;;;;;;;;;;5052508;28;20078;-34
2023/06/27 12:28:12;;;;;;;2.53;0.88;;;;;;;;;;5055437;28;20506;-35
2023/06/27 12:30:37;;;;;;;2.28;1.05;;;;;;;;;;5061468;28;20028;-34
2023/06/27 12:33:03;;;;;;;2.00;0.80;;;;;;;;;;5056708;28;20042;-37
2023/06/27 12:35:28;;;;;;;2.63;0.70;;;;;;;;;;5053978;28;20024;-37
2023/06/27 12:37:54;;;;;;;5.30;1.05;;;;;;;;;;5058300;28;20052;-34
2023/06/27 12:40:22;;;;;;;3.15;0.75;;;;;;;;;;5069159;28;20027;-35
2023/06/27 12:42:49;;;;;;;3.67;0.70;;;;;;;;;;5069437;28;20511;-35
2023/06/27 12:45:14;;;;;;;2.58;0.93;;;;;;;;;;5072313;28;20471;-35
2023/06/27 12:47:43;;;;;;;2.00;0.70;;;;;;;;;;5071323;28;20109;-35
2023/06/27 12:50:12;;;;;;;2.22;0.75;;;;;;;;;;5071394;28;20302;-34
2023/06/27 12:52:37;;;;;;;3.10;0.65;;;;;;;;;;5064590;28;20028;-37
2023/06/27 12:55:03;;;;;;;2.50;0.80;;;;;;;;;;5067241;28;20142;-36
2023/06/27 12:57:28;;;;;;;2.55;0.80;;;;;;;;;;5069051;28;20102;-35
2023/06/27 12:59:53;;;;;;;0.87;0.50;;;;;;;;;;5068448;28;20025;-36
2023/06/27 13:02:19;;;;;;;5.80;0.80;;;;;;;;;;5062709;28;20487;-35
2023/06/27 13:04:44;;;;;;;2.50;0.50;;;;;;;;;;5063257;28;20059;-35
2023/06/27 13:07:10;;;;;;;3.30;0.98;;;;;;;;;;5054491;28;20115;-37
2023/06/27 13:09:37;;;;;;;4.20;0.70;;;;;;;;;;5040340;28;20040;-35
2023/06/27 13:12:02;;;;;;;3.25;1.15;;;;;;;;;;5060497;28;20024;-37
2023/06/27 13:14:28;;;;;;;3.65;0.77;;;;;;;;;;5049255;28;20041;-36
2023/06/27 13:16:53;;;;;;;3.07;1.10;;;;;;;;;;5053843;28;20035;-35
2023/06/27 13:19:18;;;;;;;3.57;1.17;;;;;;;;;;5055418;28;20345;-36
2023/06/27 13:21:44;;;;;;;1.50;0.63;;;;;;;;;;5049584;28;20271;-35
2023/06/27 13:24:11;;;;;;;2.70;0.77;;;;;;;;;;5059549;28;20270;-34
2023/06/27 13:26:36;;;;;;;4.22;0.70;;;;;;;;;;5067899;28;20032;-35
2023/06/27 13:29:02;;;;;;;2.63;0.70;;;;;;;;;;5066917;28;20028;-35
2023/06/27 13:31:27;;;;;;;3.58;0.60;;;;;;;;;;5060525;28;20357;-35
2023/06/27 13:33:52;;;;;;;7.17;0.67;;;;;;;;;;5058879;28;20445;-34
2023/06/27 13:36:17;;;;;;;8.80;0.67;;;;;;;;;;5061960;28;20287;-34
2023/06/27 13:38:43;;;;;;;4.40;1.00;;;;;;;;;;5062486;28;20298;-36
2023/06/27 13:41:08;;;;;;;3.00;0.53;;;;;;;;;;5062966;28;20273;-34
2023/06/27 13:43:36;;;;;;;5.10;0.50;;;;;;;;;;5070361;28;20267;-35
2023/06/27 13:46:02;;;;;;;8.48;0.60;;;;;;;;;;5067950;28;20024;-35
2023/06/27 13:48:28;;;;;;;3.45;0.68;;;;;;;;;;5064878;28;20040;-35
2023/06/27 13:50:53;;;;;;;2.80;0.60;;;;;;;;;;5061600;28;20062;-35
2023/06/27 13:53:19;;;;;;;6.13;1.30;;;;;;;;;;5058139;28;20286;-34
2023/06/27 13:55:45;;;;;;;4.80;0.77;;;;;;;;;;5065344;28;20017;-35
2023/06/27 13:58:11;;;;;;;3.53;0.60;;;;;;;;;;5064530;28;20061;-35
2023/06/27 14:00:36;;;;;;;4.63;0.70;;;;;;;;;;5067964;28;20017;-35
2023/06/27 14:03:01;;;;;;;3.60;1.63;;;;;;;;;;5066908;28;20123;-34
2023/06/27 14:05:26;;;;;;;4.28;0.80;;;;;;;;;;5061359;28;20271;-37
2023/06/27 14:07:52;;;;;;;2.63;0.77;;;;;;;;;;5066409;28;20028;-34
2023/06/27 14:10:17;;;;;;;1.05;0.55;;;;;;;;;;5062114;28;20779;-37
2023/06/27 14:12:43;;;;;;;2.03;0.60;;;;;;;;;;5062158;28;20036;-36
2023/06/27 14:15:09;;;;;;;2.85;0.50;;;;;;;;;;5063487;28;20029;-34
2023/06/27 14:17:34;;;;;;;1.63;0.60;;;;;;;;;;5064059;28;20099;-35
2023/06/27 14:19:59;;;;;;;3.45;0.60;;;;;;;;;;5068325;28;20028;-34
2023/06/27 14:22:26;;;;;;;2.60;0.60;;;;;;;;;;5068561;28;20020;-33
2023/06/27 14:24:51;;;;;;;6.22;0.88;;;;;;;;;;5071351;28;20259;-36
2023/06/27 14:27:16;;;;;;;1.40;0.50;;;;;;;;;;5063609;28;20045;-35
2023/06/27 14:29:42;;;;;;;2.57;0.50;;;;;;;;;;5065706;28;20331;-36
2023/06/27 14:32:07;;;;;;;0.50;0.20;;;;;;;;;;5066946;28;20263;-36
2023/06/27 14:34:33;;;;;;;2.00;0.50;;;;;;;;;;5067118;28;20028;-35